createdAt,value
2018-09-09T00:05:51.771Z,12.03
2018-09-09T00:11:46.736Z,11.89
2018-09-09T00:17:41.726Z,12.5
2018-09-09T00:23:36.736Z,13.29
2018-09-09T00:29:31.738Z,12.78
2018-09-09T00:35:26.741Z,12.01
2018-09-09T00:41:21.758Z,10.93
2018-09-09T00:47:16.789Z,11.78
2018-09-09T00:53:11.755Z,11.29
2018-09-09T00:59:06.771Z,11.9
2018-09-09T01:05:01.851Z,10.37
2018-09-09T01:10:56.792Z,10.54
2018-09-09T01:16:51.777Z,10.18
2018-09-09T01:22:46.767Z,9.82
2018-09-09T01:28:41.785Z,10.35
2018-09-09T01:34:36.782Z,10.1
2018-09-09T01:40:31.794Z,10.01
2018-09-09T01:46:26.841Z,9.89
2018-09-09T01:52:21.826Z,9.48
2018-09-09T01:58:16.804Z,10.06
2018-09-09T02:04:11.806Z,8.97
2018-09-09T02:10:06.812Z,8.93
2018-09-09T02:16:01.825Z,10.5
2018-09-09T02:21:56.838Z,11.38
2018-09-09T02:27:51.830Z,11.79
2018-09-09T02:33:46.833Z,11.67
2018-09-09T02:39:41.840Z,11.49
2018-09-09T02:45:36.838Z,12.04
2018-09-09T02:51:31.838Z,10.95
2018-09-09T02:57:26.851Z,10.74
2018-09-09T03:03:21.820Z,10.35
2018-09-09T03:09:16.859Z,9.63
2018-09-09T03:15:11.866Z,11.04
2018-09-09T03:21:06.858Z,11.31
2018-09-09T03:27:01.874Z,11.39
2018-09-09T03:32:56.862Z,12.23
2018-09-09T03:38:51.905Z,13.13
2018-09-09T03:44:46.918Z,12.32
2018-09-09T03:50:41.872Z,11.87
2018-09-09T03:56:36.858Z,11.1
2018-09-09T04:02:31.927Z,10.74
2018-09-09T04:08:26.873Z,11.77
2018-09-09T04:14:21.901Z,11.09
2018-09-09T04:20:16.872Z,11.08
2018-09-09T04:26:11.901Z,11.93
2018-09-09T04:32:06.918Z,11.02
2018-09-09T04:38:01.913Z,10.37
2018-09-09T04:43:56.915Z,10.58
2018-09-09T04:49:51.920Z,10.41
2018-09-09T04:55:46.916Z,10.23
2018-09-09T05:01:41.904Z,9.01
2018-09-09T05:07:36.920Z,9.65
2018-09-09T05:13:31.911Z,10.16
2018-09-09T05:19:26.943Z,14.42
2018-09-09T05:25:21.937Z,79.67
2018-09-09T05:31:16.959Z,39.35
2018-09-09T05:37:11.925Z,28.36
2018-09-09T05:43:06.957Z,21.17
2018-09-09T05:49:01.957Z,17.77
2018-09-09T05:54:56.951Z,15.36
2018-09-09T06:00:51.953Z,13.8
2018-09-09T06:06:46.952Z,12.65
2018-09-09T06:12:42.016Z,12.93
2018-09-09T06:18:36.966Z,14.76
2018-09-09T06:24:31.964Z,14.4
2018-09-09T06:30:26.976Z,14.38
2018-09-09T06:36:21.966Z,15.71
2018-09-09T06:42:16.957Z,15.62
2018-09-09T06:48:12.006Z,16.14
2018-09-09T06:54:07.019Z,16.77
2018-09-09T07:00:01.964Z,17.6
2018-09-09T07:05:56.993Z,17.37
2018-09-09T07:11:52.196Z,17.05
2018-09-09T07:17:47.004Z,16.81
2018-09-09T07:23:42.022Z,16.22
2018-09-09T07:29:36.995Z,17.44
2018-09-09T07:35:32.001Z,20.28
2018-09-09T07:41:27.011Z,15.74
2018-09-09T07:47:22.025Z,13.69
2018-09-09T07:53:17.011Z,12.97
2018-09-09T07:59:12.007Z,12.95
2018-09-09T08:05:07.027Z,12.66
2018-09-09T08:11:02.023Z,12.44
2018-09-09T08:16:57.048Z,10.67
2018-09-09T08:22:52.022Z,10.16
2018-09-09T08:28:47.027Z,10.12
2018-09-09T08:34:42.044Z,8.82
2018-09-09T08:40:37.053Z,8.23
2018-09-09T08:46:32.080Z,7.92
2018-09-09T08:52:27.068Z,8.27
2018-09-09T08:58:22.076Z,8.73
2018-09-09T09:04:17.057Z,8.21
2018-09-09T09:10:12.062Z,7.44
2018-09-09T09:16:07.072Z,8.17
2018-09-09T09:22:02.149Z,8.3
2018-09-09T09:27:57.137Z,7.78
2018-09-09T09:33:52.083Z,7.88
2018-09-09T09:39:47.117Z,6.8
2018-09-09T09:45:42.086Z,7.61
2018-09-09T09:51:37.124Z,18.7
2018-09-09T09:57:32.097Z,6.67
2018-09-09T10:03:27.112Z,5.89
2018-09-09T10:09:22.087Z,5.84
2018-09-09T10:15:17.177Z,6.17
2018-09-09T10:21:12.119Z,6.03
2018-09-09T10:27:07.125Z,4.88
2018-09-09T10:33:02.127Z,5.01
2018-09-09T10:38:57.177Z,4.98
2018-09-09T10:44:52.126Z,4.63
2018-09-09T10:50:47.119Z,4.85
2018-09-09T10:56:42.126Z,4.63
2018-09-09T11:02:37.124Z,4.31
2018-09-09T11:08:32.151Z,4.68
2018-09-09T11:14:27.152Z,4.27
2018-09-09T11:20:22.186Z,3.37
2018-09-09T11:26:17.147Z,3.26
2018-09-09T11:32:12.222Z,3.41
2018-09-09T11:38:07.167Z,2.77
2018-09-09T11:44:02.176Z,3.62
2018-09-09T11:49:57.151Z,2.88
2018-09-09T11:55:52.169Z,3
2018-09-09T12:01:47.187Z,3.03
2018-09-09T12:07:42.197Z,2.78
2018-09-09T12:13:37.240Z,2.98
2018-09-09T12:19:32.215Z,2.67
2018-09-09T12:25:27.248Z,2.59
2018-09-09T12:31:22.186Z,3.14
2018-09-09T12:37:17.238Z,3.13
2018-09-09T12:43:12.192Z,3.18
2018-09-09T12:49:07.215Z,3.09
2018-09-09T12:55:02.224Z,3.44
2018-09-09T13:00:57.229Z,3.61
2018-09-09T13:06:52.228Z,3.07
2018-09-09T13:12:47.226Z,3.04
2018-09-09T13:18:42.235Z,2.68
2018-09-09T13:24:37.235Z,2.7
2018-09-09T13:30:32.244Z,3.05
2018-09-09T13:36:27.236Z,2.51
2018-09-09T13:42:22.307Z,2.43
2018-09-09T13:48:17.332Z,2.17
2018-09-09T13:54:12.280Z,2.32
2018-09-09T14:00:07.265Z,2.42
2018-09-09T14:06:02.255Z,2.6
2018-09-09T14:11:57.267Z,2.31
2018-09-09T14:17:52.250Z,2.02
2018-09-09T14:23:47.274Z,2.75
2018-09-09T14:29:42.267Z,2.71
2018-09-09T14:35:37.300Z,3.4
2018-09-09T14:41:32.281Z,3.99
2018-09-09T14:47:27.318Z,4.17
2018-09-09T14:53:22.359Z,3.9
2018-09-09T14:59:17.304Z,4.65
2018-09-09T15:05:12.336Z,4.27
2018-09-09T15:11:07.304Z,4.19
2018-09-09T15:17:02.299Z,4
2018-09-09T15:22:57.321Z,4.06
2018-09-09T15:28:52.420Z,4.38
2018-09-09T15:34:47.303Z,3.62
2018-09-09T15:40:42.315Z,3.74
2018-09-09T15:46:37.313Z,4.13
2018-09-09T15:52:32.328Z,3.79
2018-09-09T15:58:27.322Z,3.88
2018-09-09T16:04:22.380Z,4.65
2018-09-09T16:10:17.330Z,4.16
2018-09-09T16:16:12.374Z,3.77
2018-09-09T16:22:07.351Z,3.82
2018-09-09T16:28:02.336Z,4.2
2018-09-09T16:33:57.322Z,3.59
2018-09-09T16:39:52.376Z,3.49
2018-09-09T16:45:47.419Z,3.47
2018-09-09T16:51:42.363Z,3.52
2018-09-09T16:57:37.370Z,3.81
2018-09-09T17:03:32.364Z,3.77
2018-09-09T17:09:27.377Z,4.26
2018-09-09T17:15:22.381Z,3.67
2018-09-09T17:21:17.374Z,3.74
2018-09-09T17:27:12.393Z,4.19
2018-09-09T17:33:07.390Z,4.16
2018-09-09T17:39:02.394Z,3.77
2018-09-09T17:44:57.378Z,5.58
2018-09-09T17:50:52.411Z,7.93
2018-09-09T17:56:47.438Z,7.76
2018-09-09T18:02:42.527Z,9.97
2018-09-09T18:08:37.427Z,9.23
2018-09-09T18:14:32.402Z,7.2
2018-09-09T18:20:27.480Z,5.41
2018-09-09T18:26:22.412Z,7.73
2018-09-09T18:32:17.423Z,8.79
2018-09-09T18:38:12.427Z,7.87
2018-09-09T18:44:07.474Z,6.81
2018-09-09T18:50:02.513Z,6.47
2018-09-09T18:55:57.445Z,6.64
2018-09-09T19:01:52.435Z,6.52
2018-09-09T19:07:47.452Z,6.44
2018-09-09T19:13:42.448Z,10.8
2018-09-09T19:19:37.449Z,8.42
2018-09-09T19:25:32.506Z,7.74
2018-09-09T19:31:27.464Z,7.66
2018-09-09T19:37:22.494Z,7.4
2018-09-09T19:43:17.475Z,7.35
2018-09-09T19:49:12.500Z,8.11
2018-09-09T19:55:07.483Z,7.66
2018-09-09T20:01:02.494Z,7.2
2018-09-09T20:06:57.494Z,7.44
2018-09-09T20:12:52.483Z,8.21
2018-09-09T20:18:47.500Z,7.93
2018-09-09T20:24:42.515Z,9.47
2018-09-09T20:30:37.534Z,9.53
2018-09-09T20:36:32.506Z,8.73
2018-09-09T20:42:27.509Z,10.13
2018-09-09T20:48:22.506Z,8.15
2018-09-09T20:54:17.533Z,7.75
2018-09-09T21:00:12.542Z,8.05
2018-09-09T21:06:07.584Z,8.14
2018-09-09T21:12:02.553Z,8.21
2018-09-09T21:17:57.548Z,8.31
2018-09-09T21:23:52.564Z,8.7
2018-09-09T21:29:47.538Z,8.98
2018-09-09T21:35:42.549Z,10.21
2018-09-09T21:41:37.535Z,9.81
2018-09-09T21:47:32.575Z,8.75
2018-09-09T21:53:27.558Z,9.25
2018-09-09T21:59:22.563Z,8.81
2018-09-09T22:05:17.576Z,8.65
2018-09-09T22:11:12.566Z,8.18
2018-09-09T22:17:07.548Z,8.52
2018-09-09T22:23:02.611Z,8.28
2018-09-09T22:28:57.553Z,8.34
2018-09-09T22:34:52.553Z,7.82
2018-09-09T22:40:47.589Z,8.21
2018-09-09T22:46:42.561Z,8.81
2018-09-09T22:52:37.569Z,8.41
2018-09-09T22:58:32.600Z,9.9
2018-09-09T23:04:27.650Z,12.34
2018-09-09T23:10:22.586Z,12.98
2018-09-09T23:16:17.625Z,11.23
2018-09-09T23:22:12.623Z,10.48
2018-09-09T23:28:07.622Z,9.94
2018-09-09T23:34:02.600Z,10.93
2018-09-09T23:39:57.619Z,10.05
2018-09-09T23:45:52.624Z,9.46
2018-09-09T23:51:47.633Z,10.94
2018-09-09T23:57:42.684Z,13.35
